createdAt,value
2018-11-03T00:01:51.506Z,101.98
2018-11-03T00:05:07.939Z,102.10
2018-11-03T00:08:12.771Z,102.13
2018-11-03T00:11:17.641Z,102.26
2018-11-03T00:14:41.350Z,102.31
2018-11-03T00:18:05.185Z,102.29
2018-11-03T00:21:21.525Z,102.36
2018-11-03T00:24:37.590Z,102.34
2018-11-03T00:27:54.281Z,102.16
2018-11-03T00:30:59.132Z,102.13
2018-11-03T00:34:22.861Z,101.98
2018-11-03T00:38:01.125Z,101.84
2018-11-03T00:41:02.355Z,101.72
2018-11-03T00:44:18.120Z,101.56
2018-11-03T00:47:34.011Z,101.40
2018-11-03T00:50:49.848Z,101.36
2018-11-03T00:53:54.823Z,101.18
2018-11-03T00:57:18.615Z,100.73
2018-11-03T01:00:42.456Z,100.95
2018-11-03T01:03:58.682Z,101.21
2018-11-03T01:07:15.180Z,101.27
2018-11-03T01:10:20.066Z,101.14
2018-11-03T01:13:24.922Z,101.38
2018-11-03T01:16:48.634Z,101.27
2018-11-03T01:20:04.356Z,101.04
2018-11-03T01:23:20.310Z,100.78
2018-11-03T01:26:36.505Z,101.00
2018-11-03T01:29:53.137Z,101.01
2018-11-03T01:33:09.512Z,100.71
2018-11-03T01:36:25.987Z,100.84
2018-11-03T01:39:41.791Z,100.62
2018-11-03T01:42:58.527Z,100.91
2018-11-03T01:46:14.420Z,101.01
2018-11-03T01:49:30.306Z,101.06
2018-11-03T01:52:46.560Z,101.11
2018-11-03T01:55:51.788Z,101.12
2018-11-03T01:59:15.522Z,100.92
2018-11-03T02:02:53.586Z,100.94
2018-11-03T02:05:55.778Z,100.88
2018-11-03T02:09:12.058Z,101.04
2018-11-03T02:12:27.818Z,100.90
2018-11-03T02:15:51.931Z,100.91
2018-11-03T02:19:29.882Z,101.33
2018-11-03T02:22:20.560Z,101.19
2018-11-03T02:25:58.384Z,101.28
2018-11-03T02:29:07.972Z,101.42
2018-11-03T02:32:26.868Z,101.20
2018-11-03T02:35:17.840Z,101.32
2018-11-03T02:38:41.558Z,101.15
2018-11-03T02:41:57.327Z,101.14
2018-11-03T02:45:13.748Z,100.77
2018-11-03T02:48:30.002Z,100.62
2018-11-03T02:51:46.622Z,100.91
2018-11-03T02:54:51.648Z,100.72
2018-11-03T02:57:56.561Z,100.80
2018-11-03T03:01:13.050Z,101.07
2018-11-03T03:04:06.515Z,101.20
2018-11-03T03:07:11.318Z,101.21
2018-11-03T03:10:35.037Z,101.49
2018-11-03T03:13:51.360Z,101.55
2018-11-03T03:17:14.786Z,101.59
2018-11-03T03:20:38.523Z,101.59
2018-11-03T03:23:54.458Z,101.67
2018-11-03T03:27:10.457Z,101.59
2018-11-03T03:30:26.283Z,102.05
2018-11-03T03:33:43.013Z,102.25
2018-11-03T03:36:54.907Z,102.02
2018-11-03T03:39:59.781Z,102.13
2018-11-03T03:43:37.586Z,102.27
2018-11-03T03:46:47.253Z,102.30
2018-11-03T03:50:06.207Z,102.51
2018-11-03T03:53:15.807Z,102.59
2018-11-03T03:56:20.643Z,102.60
2018-11-03T03:59:44.468Z,102.41
2018-11-03T04:03:08.163Z,102.27
2018-11-03T04:06:24.661Z,102.37
2018-11-03T04:09:29.582Z,102.48
2018-11-03T04:12:53.337Z,102.44
2018-11-03T04:16:09.107Z,102.36
2018-11-03T04:19:25.578Z,102.32
2018-11-03T04:22:42.055Z,102.50
2018-11-03T04:25:46.928Z,102.21
2018-11-03T04:29:10.632Z,102.12
2018-11-03T04:32:26.707Z,102.27
2018-11-03T04:35:42.357Z,102.39
2018-11-03T04:38:58.062Z,102.26
2018-11-03T04:42:13.778Z,102.27
2018-11-03T04:45:30.167Z,102.52
2018-11-03T04:48:46.347Z,102.40
2018-11-03T04:52:02.170Z,102.59
2018-11-03T04:55:18.604Z,102.59
2018-11-03T04:58:23.408Z,102.55
2018-11-03T05:01:47.191Z,102.61
2018-11-03T05:05:22.683Z,102.55
2018-11-03T05:08:15.760Z,102.84
2018-11-03T05:11:53.768Z,102.84
2018-11-03T05:14:55.977Z,102.79
2018-11-03T05:18:12.384Z,102.83
2018-11-03T05:21:28.245Z,103.15
2018-11-03T05:24:44.281Z,103.07
2018-11-03T05:27:59.938Z,103.20
2018-11-03T05:31:16.042Z,103.27
2018-11-03T05:34:31.660Z,103.28
2018-11-03T05:37:48.272Z,103.43
2018-11-03T05:41:04.250Z,103.25
2018-11-03T05:44:20.489Z,103.29
2018-11-03T05:47:25.328Z,103.34
2018-11-03T05:50:30.185Z,103.38
2018-11-03T05:53:35.030Z,103.36
2018-11-03T05:56:58.748Z,103.42
2018-11-03T06:00:14.965Z,103.36
2018-11-03T06:03:19.814Z,103.27
2018-11-03T06:06:43.599Z,103.19
2018-11-03T06:10:07.533Z,103.17
2018-11-03T06:13:23.266Z,103.18
2018-11-03T06:16:39.838Z,103.16
2018-11-03T06:19:56.581Z,103.53
2018-11-03T06:23:20.408Z,103.32
2018-11-03T06:26:25.187Z,103.36
2018-11-03T06:29:41.067Z,103.23
2018-11-03T06:32:57.607Z,103.16
2018-11-03T06:36:14.051Z,103.23
2018-11-03T06:42:41.936Z,103.23
2018-11-03T06:45:57.778Z,103.39
2018-11-03T06:49:20.298Z,103.33
2018-11-03T06:52:36.183Z,103.29
2018-11-03T06:55:51.958Z,103.30
2018-11-03T06:59:07.768Z,103.27
2018-11-03T07:02:24.264Z,103.11
2018-11-03T07:05:40.460Z,102.92
2018-11-03T07:08:56.875Z,102.48
2018-11-03T07:12:13.057Z,102.37
2018-11-03T07:15:28.839Z,102.11
2018-11-03T07:18:44.697Z,101.52
2018-11-03T07:22:01.420Z,101.14
2018-11-03T07:25:17.879Z,100.46
2018-11-03T07:28:22.785Z,99.54
2018-11-03T07:31:27.614Z,99.47
2018-11-03T07:34:51.401Z,99.30
2018-11-03T07:38:15.186Z,98.50
2018-11-03T07:41:31.837Z,97.59
2018-11-03T07:44:36.629Z,97.37
2018-11-03T07:47:41.550Z,97.70
2018-11-03T07:50:46.389Z,96.73
2018-11-03T07:54:10.211Z,97.04
2018-11-03T07:57:15.035Z,96.76
2018-11-03T08:00:38.827Z,96.28
2018-11-03T08:04:02.242Z,94.83
2018-11-03T08:07:25.950Z,95.23
2018-11-03T08:10:42.339Z,94.85
2018-11-03T08:14:01.395Z,94.90
2018-11-03T08:23:44.740Z,93.62
2018-11-03T08:27:00.480Z,92.98
2018-11-03T08:30:16.274Z,92.97
2018-11-03T08:33:32.072Z,91.13
2018-11-03T08:36:48.576Z,91.84
2018-11-03T08:40:04.559Z,92.17
2018-11-03T08:43:20.537Z,91.82
2018-11-03T08:46:37.110Z,91.26
2018-11-03T08:49:52.978Z,91.31
2018-11-03T08:53:09.666Z,91.71
2018-11-03T08:56:25.930Z,90.68
2018-11-03T08:59:42.075Z,91.21
2018-11-03T09:02:57.757Z,91.51
2018-11-03T09:06:14.376Z,91.08
2018-11-03T09:09:30.327Z,89.54
2018-11-03T09:12:46.152Z,89.94
2018-11-03T09:16:02.680Z,88.97
2018-11-03T09:19:18.367Z,88.73
2018-11-03T09:22:35.407Z,88.81
2018-11-03T09:25:52.012Z,89.49
2018-11-03T09:29:08.404Z,89.75
2018-11-03T09:32:24.648Z,89.03
2018-11-03T09:35:40.565Z,89.67
2018-11-03T09:38:57.088Z,89.61
2018-11-03T09:42:19.235Z,88.77
2018-11-03T09:45:39.965Z,89.39
2018-11-03T09:48:41.910Z,89.35
2018-11-03T09:51:47.040Z,89.36
2018-11-03T09:54:51.956Z,89.03
2018-11-03T09:57:56.814Z,88.40
2018-11-03T10:04:39.531Z,88.84
2018-11-03T10:07:41.160Z,89.67
2018-11-03T10:10:57.033Z,89.28
2018-11-03T10:14:12.874Z,89.42
2018-11-03T10:17:28.637Z,89.04
2018-11-03T10:20:45.229Z,89.89
2018-11-03T10:24:01.584Z,90.39
2018-11-03T10:27:06.473Z,89.20
2018-11-03T10:30:12.529Z,89.66
2018-11-03T10:33:36.376Z,89.91
2018-11-03T10:37:11.947Z,89.94
2018-11-03T10:40:17.833Z,90.79
2018-11-03T10:43:34.337Z,90.58
2018-11-03T10:46:51.083Z,90.78
2018-11-03T10:50:06.811Z,90.70
2018-11-03T10:53:23.020Z,89.93
2018-11-03T10:56:38.776Z,90.34
2018-11-03T10:59:43.674Z,90.34
2018-11-03T11:03:26.026Z,90.33
2018-11-03T11:07:08.353Z,89.88
2018-11-03T11:10:43.363Z,89.52
2018-11-03T11:13:59.430Z,90.32
2018-11-03T11:17:15.374Z,91.48
2018-11-03T11:20:31.247Z,90.68
2018-11-03T11:23:47.024Z,91.03
2018-11-03T11:27:02.752Z,91.14
2018-11-03T11:30:19.312Z,91.15
2018-11-03T11:33:35.333Z,91.09
2018-11-03T11:36:51.439Z,90.71
2018-11-03T11:40:07.567Z,90.91
2018-11-03T11:43:23.783Z,91.13
2018-11-03T11:46:39.626Z,90.32
2018-11-03T11:49:55.587Z,90.06
2018-11-03T11:53:11.336Z,90.05
2018-11-03T11:56:27.582Z,90.59
2018-11-03T11:59:43.853Z,90.69
2018-11-03T12:03:00.097Z,90.77
2018-11-03T12:06:15.612Z,90.88
2018-11-03T12:09:31.648Z,90.26
2018-11-03T12:12:47.363Z,90.60
2018-11-03T12:16:03.174Z,88.75
2018-11-03T12:19:19.832Z,89.37
2018-11-03T12:22:25.174Z,89.18
2018-11-03T12:25:49.042Z,89.05
2018-11-03T12:29:12.601Z,89.36
2018-11-03T12:32:28.923Z,88.56
2018-11-03T12:35:45.369Z,87.80
2018-11-03T12:39:01.577Z,87.89
2018-11-03T12:42:06.784Z,88.50
2018-11-03T12:45:30.484Z,88.49
2018-11-03T12:48:46.637Z,88.01
2018-11-03T12:52:02.860Z,88.83
2018-11-03T12:55:18.670Z,87.94
2018-11-03T12:58:34.654Z,87.07
2018-11-03T13:01:50.586Z,87.38
2018-11-03T13:05:06.285Z,86.26
2018-11-03T13:08:11.149Z,86.58
2018-11-03T13:11:16.198Z,85.85
2018-11-03T13:14:21.022Z,86.50
2018-11-03T13:17:44.705Z,87.25
2018-11-03T13:21:08.421Z,87.55
2018-11-03T13:24:24.947Z,86.27
2018-11-03T13:27:44.050Z,86.72
2018-11-03T13:30:34.744Z,87.71
2018-11-03T13:34:09.826Z,88.64
2018-11-03T13:37:14.672Z,88.93
2018-11-03T13:40:31.143Z,88.89
2018-11-03T13:43:46.930Z,88.52
2018-11-03T13:47:02.764Z,88.60
2018-11-03T13:50:26.702Z,88.38
2018-11-03T13:53:50.411Z,88.49
2018-11-03T13:57:06.874Z,89.14
2018-11-03T14:00:22.840Z,88.23
2018-11-03T14:03:39.553Z,88.73
2018-11-03T14:06:56.211Z,88.72
2018-11-03T14:10:14.532Z,88.06
2018-11-03T14:13:30.877Z,88.33
2018-11-03T14:16:47.515Z,88.10
2018-11-03T14:20:03.368Z,88.88
2018-11-03T14:23:20.068Z,89.93
2018-11-03T14:26:36.241Z,90.85
2018-11-03T14:29:52.580Z,91.32
2018-11-03T14:33:10.635Z,90.96
2018-11-03T14:36:27.072Z,91.33
2018-11-03T14:39:42.663Z,91.40
2018-11-03T14:42:59.364Z,91.70
2018-11-03T14:46:16.078Z,91.97
2018-11-03T14:49:31.805Z,92.66
2018-11-03T14:52:47.834Z,91.86
2018-11-03T14:55:53.612Z,91.63
2018-11-03T14:59:10.400Z,91.75
2018-11-03T15:02:14.681Z,92.29
2018-11-03T15:05:30.570Z,92.46
2018-11-03T15:08:54.162Z,92.74
2018-11-03T15:12:17.885Z,93.20
2018-11-03T15:15:34.203Z,93.45
2018-11-03T15:18:50.898Z,93.86
2018-11-03T15:22:07.259Z,94.01
2018-11-03T15:25:23.318Z,94.15
2018-11-03T15:28:39.680Z,94.12
2018-11-03T15:31:55.655Z,94.14
2018-11-03T15:35:00.803Z,93.70
2018-11-03T15:38:24.486Z,93.33
2018-11-03T15:41:48.325Z,93.74
2018-11-03T15:45:30.626Z,94.18
2018-11-03T15:48:47.466Z,94.57
2018-11-03T15:51:59.386Z,94.57
2018-11-03T15:55:23.119Z,95.05
2018-11-03T15:58:39.645Z,95.09
2018-11-03T16:01:55.401Z,95.31
2018-11-03T16:05:12.345Z,95.42
2018-11-03T16:08:28.733Z,95.02
2018-11-03T16:11:45.281Z,94.65
2018-11-03T16:15:01.262Z,94.61
2018-11-03T16:18:06.226Z,93.56
2018-11-03T16:21:42.030Z,94.04
2018-11-03T16:24:45.913Z,94.58
2018-11-03T16:28:01.713Z,94.93
2018-11-03T16:31:17.390Z,95.35
2018-11-03T16:34:33.166Z,95.53
2018-11-03T16:37:49.276Z,95.64
2018-11-03T16:41:05.335Z,95.56
2018-11-03T16:44:21.250Z,95.56
2018-11-03T16:47:26.143Z,94.80
2018-11-03T16:50:30.896Z,94.58
2018-11-03T16:53:54.801Z,94.68
2018-11-03T16:57:18.573Z,94.26
2018-11-03T17:00:23.451Z,93.93
2018-11-03T17:04:01.512Z,94.09
2018-11-03T17:07:04.496Z,93.93
2018-11-03T17:10:11.827Z,94.28
2018-11-03T17:13:16.686Z,93.77
2018-11-03T17:16:40.751Z,93.24
2018-11-03T17:19:57.224Z,93.34
2018-11-03T17:23:13.375Z,92.20
2018-11-03T17:26:29.908Z,92.91
2018-11-03T17:29:46.354Z,92.58
2018-11-03T17:33:02.201Z,93.05
2018-11-03T17:36:18.461Z,93.93
2018-11-03T17:39:34.483Z,94.20
2018-11-03T17:42:39.673Z,93.90
2018-11-03T17:46:03.632Z,93.96
2018-11-03T17:49:27.434Z,92.80
2018-11-03T17:52:43.393Z,91.58
2018-11-03T17:56:00.008Z,91.24
2018-11-03T17:59:15.842Z,90.72
2018-11-03T18:02:32.022Z,91.35
2018-11-03T18:05:48.692Z,90.25
2018-11-03T18:09:05.697Z,91.10
2018-11-03T18:12:21.642Z,91.28
2018-11-03T18:15:37.337Z,89.60
2018-11-03T18:18:53.171Z,87.45
2018-11-03T18:22:09.792Z,86.26
2018-11-03T18:25:25.650Z,84.97
2018-11-03T18:28:42.097Z,83.50
2018-11-03T18:31:57.801Z,83.00
2018-11-03T18:35:13.485Z,82.83
2018-11-03T18:38:29.803Z,83.09
2018-11-03T18:41:46.647Z,82.76
2018-11-03T18:45:02.668Z,83.22
2018-11-03T18:48:18.359Z,83.46
2018-11-03T18:51:34.258Z,83.31
2018-11-03T18:54:50.900Z,83.27
2018-11-03T18:58:06.855Z,84.14
2018-11-03T19:01:22.665Z,84.72
2018-11-03T19:04:39.249Z,84.92
2018-11-03T19:07:55.308Z,84.63
2018-11-03T19:11:11.448Z,84.96
2018-11-03T19:14:27.911Z,86.48
2018-11-03T19:17:43.766Z,87.29
2018-11-03T19:20:59.854Z,88.33
2018-11-03T19:24:15.841Z,88.53
2018-11-03T19:27:31.841Z,89.07
2018-11-03T19:30:48.255Z,90.68
2018-11-03T19:34:04.152Z,91.43
2018-11-03T19:37:09.092Z,90.72
2018-11-03T19:40:44.594Z,90.81
2018-11-03T19:43:49.149Z,92.06
2018-11-03T19:47:05.709Z,91.10
2018-11-03T19:50:21.431Z,92.13
2018-11-03T19:53:37.745Z,92.78
2018-11-03T19:56:54.198Z,92.74
2018-11-03T20:00:10.084Z,93.32
2018-11-03T20:03:25.987Z,93.22
2018-11-03T20:06:42.436Z,92.96
2018-11-03T20:09:58.903Z,92.28
2018-11-03T20:13:15.443Z,92.71
2018-11-03T20:16:31.825Z,93.40
2018-11-03T20:19:47.777Z,94.12
2018-11-03T20:23:03.548Z,94.67
2018-11-03T20:26:19.527Z,94.46
2018-11-03T20:29:35.224Z,93.58
2018-11-03T20:32:50.977Z,93.33
2018-11-03T20:36:06.744Z,92.46
2018-11-03T20:39:22.402Z,92.13
2018-11-03T20:42:38.300Z,92.42
2018-11-03T20:45:55.046Z,92.40
2018-11-03T20:49:10.719Z,92.19
2018-11-03T20:52:27.430Z,92.31
2018-11-03T20:55:44.031Z,92.55
2018-11-03T20:59:00.081Z,92.91
2018-11-03T21:02:16.157Z,92.95
2018-11-03T21:05:32.169Z,94.06
2018-11-03T21:08:48.141Z,94.41
2018-11-03T21:12:04.005Z,94.89
2018-11-03T21:15:19.682Z,95.73
2018-11-03T21:18:35.373Z,96.15
2018-11-03T21:21:51.199Z,96.88
2018-11-03T21:25:07.906Z,96.77
2018-11-03T21:28:23.694Z,97.11
2018-11-03T21:31:39.657Z,97.60
2018-11-03T21:34:55.614Z,97.77
2018-11-03T21:38:14.915Z,97.36
2018-11-03T21:41:31.313Z,97.79
2018-11-03T21:44:47.014Z,98.27
2018-11-03T21:48:03.432Z,98.32
2018-11-03T21:51:19.315Z,98.59
2018-11-03T21:54:35.606Z,98.92
2018-11-03T21:57:52.283Z,99.76
2018-11-03T22:01:08.915Z,99.64
2018-11-03T22:04:24.814Z,99.43
2018-11-03T22:07:41.155Z,99.51
2018-11-03T22:10:57.603Z,99.88
2018-11-03T22:14:14.137Z,100.01
2018-11-03T22:17:30.106Z,99.92
2018-11-03T22:20:45.994Z,100.17
2018-11-03T22:24:04.824Z,100.23
2018-11-03T22:27:24.149Z,100.40
2018-11-03T22:30:40.209Z,100.44
2018-11-03T22:33:56.939Z,100.44
2018-11-03T22:37:01.990Z,100.11
2018-11-03T22:40:37.578Z,100.27
2018-11-03T22:43:49.670Z,100.66
2018-11-03T22:47:05.404Z,100.49
2018-11-03T22:50:22.137Z,100.70
2018-11-03T22:53:37.884Z,100.77
2018-11-03T22:56:54.465Z,100.63
2018-11-03T23:00:14.495Z,101.05
2018-11-03T23:03:19.426Z,101.11
2018-11-03T23:06:43.179Z,100.95
2018-11-03T23:10:20.871Z,101.07
2018-11-03T23:13:23.700Z,101.02
2018-11-03T23:16:39.518Z,101.43
2018-11-03T23:19:55.261Z,101.55
2018-11-03T23:23:11.687Z,101.61
2018-11-03T23:26:16.537Z,101.58
2018-11-03T23:29:40.290Z,101.93
2018-11-03T23:33:04.020Z,101.91
2018-11-03T23:36:20.456Z,102.06
2018-11-03T23:39:36.417Z,102.26
2018-11-03T23:42:52.249Z,102.03
2018-11-03T23:46:08.110Z,102.10
2018-11-03T23:49:24.445Z,102.14
2018-11-03T23:52:47.247Z,101.55
2018-11-03T23:56:03.892Z,100.72
2018-11-03T23:59:20.460Z,100.24
